createdAt,value
2022-10-30T00:01:58.577Z,100.00
2022-10-30T00:05:02.742Z,100.00
2022-10-30T00:08:08.117Z,100.00
2022-10-30T00:11:14.173Z,100.00
2022-10-30T00:14:21.790Z,100.00
2022-10-30T00:17:28.028Z,100.00
2022-10-30T00:20:37.905Z,100.00
2022-10-30T00:23:49.571Z,100.00
2022-10-30T00:26:53.863Z,100.00
2022-10-30T00:30:00.620Z,100.00
2022-10-30T00:33:03.722Z,100.00
2022-10-30T00:36:10.059Z,100.00
2022-10-30T00:39:17.395Z,100.00
2022-10-30T00:42:32.171Z,100.00
2022-10-30T00:45:36.294Z,100.00
2022-10-30T00:48:40.923Z,100.00
2022-10-30T00:51:52.029Z,100.00
2022-10-30T00:54:58.464Z,100.00
2022-10-30T00:58:04.324Z,100.00
2022-10-30T01:01:14.452Z,100.00
2022-10-30T01:04:19.396Z,100.00
2022-10-30T01:07:27.065Z,100.00
2022-10-30T01:10:32.177Z,100.00
2022-10-30T01:13:40.177Z,100.00
2022-10-30T01:16:47.918Z,100.00
2022-10-30T01:23:15.202Z,100.00
2022-10-30T01:26:22.232Z,100.00
2022-10-30T01:29:30.709Z,100.00
2022-10-30T01:32:37.937Z,100.00
2022-10-30T01:35:53.284Z,100.00
2022-10-30T01:39:05.454Z,100.00
2022-10-30T01:42:30.621Z,100.00
2022-10-30T01:45:51.803Z,100.00
2022-10-30T01:49:00.488Z,100.00
2022-10-30T01:52:13.281Z,100.00
2022-10-30T01:55:27.584Z,100.00
2022-10-30T01:58:44.735Z,100.00
2022-10-30T02:01:50.291Z,100.00
2022-10-30T02:04:57.157Z,100.00
2022-10-30T02:08:04.840Z,100.00
2022-10-30T02:11:14.509Z,100.00
2022-10-30T02:14:25.138Z,100.00
2022-10-30T02:17:30.987Z,100.00
2022-10-30T02:20:37.102Z,100.00
2022-10-30T02:23:45.604Z,100.00
2022-10-30T02:26:53.131Z,100.00
2022-10-30T02:30:02.784Z,100.00
2022-10-30T02:33:10.817Z,100.00
2022-10-30T02:36:18.442Z,100.00
2022-10-30T02:39:26.816Z,100.00
2022-10-30T02:42:34.442Z,100.00
2022-10-30T02:45:44.075Z,100.00
2022-10-30T02:48:52.753Z,100.00
2022-10-30T02:52:01.053Z,100.00
2022-10-30T02:55:06.910Z,100.00
2022-10-30T02:58:14.098Z,100.00
2022-10-30T03:01:21.997Z,100.00
2022-10-30T03:04:29.833Z,100.00
2022-10-30T03:07:35.445Z,100.00
2022-10-30T03:10:45.458Z,100.00
2022-10-30T03:13:51.285Z,100.00
2022-10-30T03:16:58.448Z,100.00
2022-10-30T03:20:03.876Z,100.00
2022-10-30T03:23:11.488Z,100.00
2022-10-30T03:26:16.987Z,100.00
2022-10-30T03:29:24.342Z,100.00
2022-10-30T03:32:30.007Z,100.00
2022-10-30T03:35:40.147Z,100.00
2022-10-30T03:38:47.647Z,100.00
2022-10-30T03:41:55.088Z,100.00
2022-10-30T03:45:00.891Z,100.00
2022-10-30T03:48:07.701Z,100.00
2022-10-30T03:51:14.812Z,100.00
2022-10-30T03:54:25.281Z,100.00
2022-10-30T03:57:32.504Z,100.00
2022-10-30T04:00:51.409Z,100.00
2022-10-30T04:03:59.932Z,100.00
2022-10-30T04:07:05.385Z,100.00
2022-10-30T04:10:20.863Z,100.00
2022-10-30T04:13:28.799Z,100.00
2022-10-30T04:16:34.063Z,100.00
2022-10-30T04:19:39.004Z,100.00
2022-10-30T04:22:48.026Z,100.00
2022-10-30T04:25:56.202Z,100.00
2022-10-30T04:29:03.091Z,100.00
2022-10-30T04:32:10.235Z,100.00
2022-10-30T04:35:18.322Z,100.00
2022-10-30T04:38:25.241Z,100.00
2022-10-30T04:41:32.834Z,100.00
2022-10-30T04:44:38.689Z,100.00
2022-10-30T04:47:47.118Z,100.00
2022-10-30T04:50:53.033Z,100.00
2022-10-30T04:54:01.203Z,100.00
2022-10-30T04:57:08.050Z,100.00
2022-10-30T05:00:15.015Z,100.00
2022-10-30T05:03:24.520Z,100.00
2022-10-30T05:06:32.225Z,100.00
2022-10-30T05:09:38.076Z,100.00
2022-10-30T05:12:47.571Z,100.00
2022-10-30T05:15:55.343Z,100.00
2022-10-30T05:19:03.690Z,100.00
2022-10-30T05:22:12.282Z,100.00
2022-10-30T05:25:18.749Z,100.00
2022-10-30T05:28:25.289Z,100.00
2022-10-30T05:31:34.280Z,100.00
2022-10-30T05:34:48.172Z,100.00
2022-10-30T05:37:57.569Z,100.00
2022-10-30T05:41:03.922Z,100.00
2022-10-30T05:44:12.404Z,100.00
2022-10-30T05:47:19.155Z,100.00
2022-10-30T05:50:26.825Z,100.00
2022-10-30T05:53:40.868Z,100.00
2022-10-30T05:56:50.357Z,100.00
2022-10-30T05:59:58.384Z,100.00
2022-10-30T06:03:07.789Z,100.00
2022-10-30T06:06:14.576Z,100.00
2022-10-30T06:09:23.072Z,100.00
2022-10-30T06:12:32.560Z,100.00
2022-10-30T06:15:40.472Z,100.00
2022-10-30T06:18:48.290Z,100.00
2022-10-30T06:21:55.796Z,100.00
2022-10-30T06:25:03.313Z,100.00
2022-10-30T06:28:09.979Z,100.00
2022-10-30T06:31:15.981Z,100.00
2022-10-30T06:34:22.933Z,100.00
2022-10-30T06:37:30.649Z,100.00
2022-10-30T06:40:37.264Z,100.00
2022-10-30T06:43:46.325Z,100.00
2022-10-30T06:46:54.962Z,100.00
2022-10-30T06:50:04.432Z,100.00
2022-10-30T06:53:11.502Z,100.00
2022-10-30T06:56:17.697Z,100.00
2022-10-30T06:59:24.867Z,100.00
2022-10-30T07:02:31.317Z,100.00
2022-10-30T07:05:35.910Z,100.00
2022-10-30T07:08:43.116Z,100.00
2022-10-30T07:11:54.399Z,100.00
2022-10-30T07:15:03.426Z,100.00
2022-10-30T07:18:09.893Z,100.00
2022-10-30T07:21:16.032Z,100.00
2022-10-30T07:24:20.762Z,100.00
2022-10-30T07:27:27.524Z,100.00
2022-10-30T07:30:33.717Z,100.00
2022-10-30T07:33:41.498Z,100.00
2022-10-30T07:36:49.778Z,100.00
2022-10-30T07:39:56.271Z,100.00
2022-10-30T07:43:04.824Z,100.00
2022-10-30T07:46:11.843Z,100.00
2022-10-30T07:49:20.825Z,100.00
2022-10-30T07:52:32.254Z,100.00
2022-10-30T07:55:40.100Z,100.00
2022-10-30T07:58:48.565Z,100.00
2022-10-30T08:01:54.756Z,100.00
2022-10-30T08:05:00.867Z,100.00
2022-10-30T08:08:06.150Z,100.00
2022-10-30T08:11:13.662Z,100.00
2022-10-30T08:14:19.100Z,100.00
2022-10-30T08:17:24.908Z,100.00
2022-10-30T08:20:29.655Z,100.00
2022-10-30T08:23:38.286Z,100.00
2022-10-30T08:26:49.174Z,100.00
2022-10-30T08:29:58.988Z,100.00
2022-10-30T08:33:04.695Z,100.00
2022-10-30T08:36:15.139Z,100.00
2022-10-30T08:39:20.615Z,100.00
2022-10-30T08:42:28.746Z,100.00
2022-10-30T08:45:35.903Z,100.00
2022-10-30T08:48:41.705Z,100.00
2022-10-30T08:51:48.145Z,100.00
2022-10-30T08:54:56.259Z,100.00
2022-10-30T08:58:04.183Z,100.00
2022-10-30T09:01:10.498Z,100.00
2022-10-30T09:04:19.262Z,100.00
2022-10-30T09:07:26.184Z,100.00
2022-10-30T09:10:34.061Z,100.00
2022-10-30T09:13:41.931Z,100.00
2022-10-30T09:16:47.396Z,100.00
2022-10-30T09:19:52.956Z,100.00
2022-10-30T09:22:58.069Z,100.00
2022-10-30T09:26:04.190Z,100.00
2022-10-30T09:29:12.126Z,100.00
2022-10-30T09:32:17.453Z,100.00
2022-10-30T09:35:24.332Z,100.00
2022-10-30T09:38:30.049Z,100.00
2022-10-30T09:41:59.938Z,100.00
2022-10-30T09:45:28.783Z,100.00
2022-10-30T09:48:54.291Z,100.00
2022-10-30T09:52:14.580Z,100.00
2022-10-30T09:55:22.771Z,100.00
2022-10-30T09:58:27.469Z,100.00
2022-10-30T10:01:42.125Z,100.00
2022-10-30T10:04:51.156Z,100.00
2022-10-30T10:08:01.767Z,100.00
2022-10-30T10:11:15.121Z,99.96
2022-10-30T10:14:23.446Z,100.00
2022-10-30T10:17:38.193Z,100.00
2022-10-30T10:20:44.128Z,99.11
2022-10-30T10:23:51.868Z,98.38
2022-10-30T10:27:02.449Z,96.44
2022-10-30T10:30:18.325Z,100.00
2022-10-30T10:33:36.563Z,100.00
2022-10-30T10:36:52.179Z,100.00
2022-10-30T10:39:59.849Z,99.35
2022-10-30T10:43:11.106Z,100.00
2022-10-30T10:46:34.046Z,100.00
2022-10-30T10:49:43.094Z,99.27
2022-10-30T10:52:51.364Z,95.22
2022-10-30T10:55:59.996Z,94.89
2022-10-30T10:59:10.859Z,94.38
2022-10-30T11:02:32.379Z,94.88
2022-10-30T11:05:44.411Z,94.18
2022-10-30T11:08:53.498Z,94.57
2022-10-30T11:11:58.828Z,97.67
2022-10-30T11:15:10.094Z,93.49
2022-10-30T11:18:15.193Z,96.41
2022-10-30T11:21:21.862Z,92.02
2022-10-30T11:24:28.986Z,90.83
2022-10-30T11:27:35.953Z,94.56
2022-10-30T11:30:42.294Z,91.79
2022-10-30T11:33:47.491Z,97.66
2022-10-30T11:36:53.543Z,99.80
2022-10-30T11:40:05.543Z,98.79
2022-10-30T11:43:14.972Z,98.64
2022-10-30T11:46:23.510Z,95.87
2022-10-30T11:49:39.041Z,99.71
2022-10-30T11:52:46.082Z,97.12
2022-10-30T11:55:54.323Z,94.38
2022-10-30T11:59:03.308Z,93.17
2022-10-30T12:02:22.397Z,92.61
2022-10-30T12:05:29.032Z,92.01
2022-10-30T12:08:36.711Z,92.92
2022-10-30T12:11:45.945Z,95.85
2022-10-30T12:14:53.842Z,96.46
2022-10-30T12:18:01.255Z,97.99
2022-10-30T12:21:05.717Z,95.66
2022-10-30T12:24:17.184Z,93.70
2022-10-30T12:27:22.693Z,98.72
2022-10-30T12:30:33.277Z,100.00
2022-10-30T12:33:51.899Z,99.18
2022-10-30T12:37:05.507Z,98.80
2022-10-30T12:40:14.475Z,95.50
2022-10-30T12:43:24.090Z,95.83
2022-10-30T12:46:30.762Z,95.92
2022-10-30T12:49:36.775Z,95.88
2022-10-30T12:52:48.481Z,96.51
2022-10-30T12:56:00.576Z,96.57
2022-10-30T12:59:13.378Z,96.19
2022-10-30T13:02:30.662Z,98.59
2022-10-30T13:05:45.587Z,97.96
2022-10-30T13:08:55.646Z,97.98
2022-10-30T13:12:12.556Z,100.00
2022-10-30T13:15:18.942Z,100.00
2022-10-30T13:18:31.529Z,100.00
2022-10-30T13:21:36.172Z,98.31
2022-10-30T13:24:40.354Z,97.76
2022-10-30T13:27:49.624Z,98.36
2022-10-30T13:31:14.485Z,100.00
2022-10-30T13:34:26.478Z,100.00
2022-10-30T13:37:33.374Z,100.00
2022-10-30T13:40:44.621Z,100.00
2022-10-30T13:43:47.031Z,100.00
2022-10-30T13:47:08.863Z,100.00
2022-10-30T13:50:23.480Z,100.00
2022-10-30T13:53:31.109Z,100.00
2022-10-30T13:56:36.545Z,100.00
2022-10-30T13:59:54.276Z,100.00
2022-10-30T14:03:06.066Z,100.00
2022-10-30T14:06:32.401Z,100.00
2022-10-30T14:09:50.737Z,100.00
2022-10-30T14:12:57.683Z,100.00
2022-10-30T14:16:03.641Z,100.00
2022-10-30T14:19:12.562Z,100.00
2022-10-30T14:22:25.306Z,100.00
2022-10-30T14:25:31.205Z,100.00
2022-10-30T14:28:37.037Z,100.00
2022-10-30T14:31:44.548Z,100.00
2022-10-30T14:34:53.980Z,100.00
2022-10-30T14:38:15.637Z,100.00
2022-10-30T14:41:28.668Z,100.00
2022-10-30T14:44:49.192Z,100.00
2022-10-30T14:47:54.786Z,100.00
2022-10-30T14:51:14.325Z,100.00
2022-10-30T14:54:19.992Z,100.00
2022-10-30T14:57:44.893Z,100.00
2022-10-30T15:00:50.183Z,100.00
2022-10-30T15:04:05.936Z,100.00
2022-10-30T15:07:31.910Z,100.00
2022-10-30T15:10:52.809Z,100.00
2022-10-30T15:14:00.247Z,100.00
2022-10-30T15:17:05.970Z,100.00
2022-10-30T15:20:19.902Z,100.00
2022-10-30T15:23:25.564Z,100.00
2022-10-30T15:26:37.548Z,100.00
2022-10-30T15:29:47.969Z,100.00
2022-10-30T15:32:54.444Z,100.00
2022-10-30T15:36:06.018Z,100.00
2022-10-30T15:39:18.891Z,100.00
2022-10-30T15:42:25.498Z,100.00
2022-10-30T15:45:37.755Z,100.00
2022-10-30T15:48:47.741Z,100.00
2022-10-30T15:51:53.042Z,100.00
2022-10-30T15:54:59.551Z,100.00
2022-10-30T15:58:06.381Z,100.00
2022-10-30T16:01:24.943Z,100.00
2022-10-30T16:04:32.317Z,100.00
2022-10-30T16:07:46.622Z,100.00
2022-10-30T16:10:57.281Z,100.00
2022-10-30T16:14:07.100Z,100.00
2022-10-30T16:17:14.277Z,100.00
2022-10-30T16:20:20.803Z,100.00
2022-10-30T16:23:29.043Z,100.00
2022-10-30T16:26:36.547Z,100.00
2022-10-30T16:29:47.322Z,100.00
2022-10-30T16:32:57.112Z,100.00
2022-10-30T16:36:04.699Z,100.00
2022-10-30T16:39:12.127Z,100.00
2022-10-30T16:42:24.655Z,100.00
2022-10-30T16:45:30.609Z,100.00
2022-10-30T16:48:37.239Z,100.00
2022-10-30T16:51:44.167Z,100.00
2022-10-30T16:55:03.237Z,100.00
2022-10-30T16:58:09.007Z,100.00
2022-10-30T17:01:17.433Z,100.00
2022-10-30T17:04:23.202Z,100.00
2022-10-30T17:07:29.492Z,100.00
2022-10-30T17:10:40.222Z,100.00
2022-10-30T17:13:53.432Z,100.00
2022-10-30T17:17:00.828Z,100.00
2022-10-30T17:20:07.393Z,100.00
2022-10-30T17:23:18.048Z,100.00
2022-10-30T17:26:25.184Z,100.00
2022-10-30T17:29:43.751Z,100.00
2022-10-30T17:32:55.112Z,100.00
2022-10-30T17:36:02.788Z,100.00
2022-10-30T17:39:09.836Z,100.00
2022-10-30T17:42:12.814Z,100.00
2022-10-30T17:45:17.586Z,100.00
2022-10-30T17:48:28.888Z,100.00
2022-10-30T17:51:33.579Z,100.00
2022-10-30T17:54:39.171Z,100.00
2022-10-30T17:57:48.114Z,100.00
2022-10-30T18:00:54.230Z,100.00
2022-10-30T18:03:59.107Z,100.00
2022-10-30T18:07:05.203Z,100.00
2022-10-30T18:10:12.013Z,100.00
2022-10-30T18:13:17.481Z,100.00
2022-10-30T18:16:23.273Z,100.00
2022-10-30T18:19:27.768Z,100.00
2022-10-30T18:22:35.470Z,100.00
2022-10-30T18:25:41.382Z,100.00
2022-10-30T18:28:50.718Z,100.00
2022-10-30T18:31:59.215Z,100.00
2022-10-30T18:35:15.711Z,100.00
2022-10-30T18:38:21.109Z,100.00
2022-10-30T18:41:26.346Z,100.00
2022-10-30T18:44:32.339Z,100.00
2022-10-30T18:47:37.733Z,100.00
2022-10-30T18:50:45.716Z,100.00
2022-10-30T18:53:54.685Z,100.00
2022-10-30T18:57:00.655Z,100.00
2022-10-30T19:00:08.204Z,100.00
2022-10-30T19:03:16.875Z,100.00
2022-10-30T19:06:25.275Z,100.00
2022-10-30T19:09:29.205Z,100.00
2022-10-30T19:12:38.394Z,100.00
2022-10-30T19:15:48.304Z,100.00
2022-10-30T19:18:53.130Z,100.00
2022-10-30T19:21:57.483Z,100.00
2022-10-30T19:25:13.754Z,100.00
2022-10-30T19:28:20.150Z,100.00
2022-10-30T19:31:27.396Z,100.00
2022-10-30T19:34:34.314Z,100.00
2022-10-30T19:37:40.316Z,100.00
2022-10-30T19:40:47.143Z,100.00
2022-10-30T19:43:52.549Z,100.00
2022-10-30T19:47:00.281Z,100.00
2022-10-30T19:50:22.606Z,100.00
2022-10-30T19:53:29.225Z,100.00
2022-10-30T19:56:36.600Z,100.00
2022-10-30T19:59:44.215Z,100.00
2022-10-30T20:02:50.065Z,100.00
2022-10-30T20:05:57.141Z,100.00
2022-10-30T20:09:03.587Z,100.00
2022-10-30T20:12:10.635Z,100.00
2022-10-30T20:15:22.816Z,100.00
2022-10-30T20:18:32.101Z,100.00
2022-10-30T20:21:39.919Z,100.00
2022-10-30T20:24:47.610Z,100.00
2022-10-30T20:28:04.101Z,100.00
2022-10-30T20:31:14.698Z,100.00
2022-10-30T20:34:20.454Z,100.00
2022-10-30T20:37:27.220Z,100.00
2022-10-30T20:40:35.331Z,100.00
2022-10-30T20:43:41.210Z,100.00
2022-10-30T20:46:49.184Z,100.00
2022-10-30T20:50:00.170Z,100.00
2022-10-30T20:53:05.982Z,100.00
2022-10-30T20:56:14.763Z,100.00
2022-10-30T20:59:22.649Z,100.00
2022-10-30T21:02:29.581Z,100.00
2022-10-30T21:05:45.347Z,100.00
2022-10-30T21:08:52.799Z,100.00
2022-10-30T21:12:02.078Z,100.00
2022-10-30T21:15:09.237Z,100.00
2022-10-30T21:18:15.238Z,100.00
2022-10-30T21:21:25.318Z,100.00
2022-10-30T21:24:31.890Z,100.00
2022-10-30T21:27:40.347Z,100.00
2022-10-30T21:30:46.919Z,100.00
2022-10-30T21:33:54.032Z,100.00
2022-10-30T21:37:02.127Z,100.00
2022-10-30T21:40:08.527Z,100.00
2022-10-30T21:43:17.109Z,100.00
2022-10-30T21:46:27.637Z,100.00
2022-10-30T21:49:34.859Z,100.00
2022-10-30T21:52:42.905Z,100.00
2022-10-30T21:55:52.682Z,100.00
2022-10-30T21:59:00.793Z,100.00
2022-10-30T22:02:08.784Z,100.00
2022-10-30T22:05:16.552Z,100.00
2022-10-30T22:08:23.149Z,100.00
2022-10-30T22:11:39.999Z,100.00
2022-10-30T22:14:44.523Z,100.00
2022-10-30T22:17:51.588Z,100.00
2022-10-30T22:21:00.741Z,100.00
2022-10-30T22:24:06.626Z,100.00
2022-10-30T22:27:12.296Z,100.00
2022-10-30T22:30:16.980Z,100.00
2022-10-30T22:33:20.812Z,100.00
2022-10-30T22:36:28.090Z,100.00
2022-10-30T22:39:34.048Z,100.00
2022-10-30T22:42:41.959Z,100.00
2022-10-30T22:45:55.926Z,100.00
2022-10-30T22:49:01.202Z,100.00
2022-10-30T22:52:07.492Z,100.00
2022-10-30T22:55:16.801Z,100.00
2022-10-30T22:58:21.839Z,100.00
2022-10-30T23:01:32.682Z,100.00
2022-10-30T23:04:38.261Z,100.00
2022-10-30T23:07:42.398Z,100.00
2022-10-30T23:10:51.788Z,100.00
2022-10-30T23:13:57.438Z,100.00
2022-10-30T23:17:02.287Z,100.00
2022-10-30T23:20:09.939Z,100.00
2022-10-30T23:23:12.899Z,100.00
2022-10-30T23:26:20.990Z,100.00
2022-10-30T23:29:24.542Z,100.00
2022-10-30T23:32:29.506Z,100.00
2022-10-30T23:35:34.697Z,100.00
2022-10-30T23:38:42.947Z,100.00
2022-10-30T23:41:47.392Z,100.00
2022-10-30T23:44:50.825Z,100.00
2022-10-30T23:47:56.142Z,100.00
2022-10-30T23:51:08.373Z,100.00
2022-10-30T23:54:15.782Z,100.00
2022-10-30T23:57:21.366Z,100.00
